TEJ079 LEIB-SAEZ
Flight info
| Callsign | TEJ079 |
|---|---|
| Flight time | N/A |
| Altitude | 33000 |
| Route | BAVER M603 ALT Y810 AMR L112 MGA N851 VJF L82 RUNAX UL82 IBALU UN857 TERTO N857 GUNET UW11 CVS UB623 FNR UN857 NELOX UZ53 UMRUD UN741 PAPIX PAPIX7B |
| Aircraft | A35K/H-SDE2E3GHIJ3J4J5LM1ORWXY/LB1D1 |
Departure
| Time | N/A |
|---|---|
| Airport | Ibiza Airport (LEIB) |
Arrival
| Time | 2026-04-30 03:24 |
|---|---|
| Airport | Ezeiza International Airport - Ministro Pistarini (SAEZ) |
| Time | Latitude | Longitude | Altitude | Speed | Heading |
|---|---|---|---|---|---|
| 2026-04-29 20:33 | 10.32067 | -26.03042 | 32974 ft | 506 kts | 206° |
| 2026-04-29 20:33 | 10.28854 | -26.04533 | 32970 ft | 506 kts | 206° |
| 2026-04-29 20:34 | 10.22447 | -26.07510 | 32973 ft | 506 kts | 206° |
| 2026-04-29 20:34 | 10.16049 | -26.10480 | 32968 ft | 506 kts | 206° |
| 2026-04-29 20:35 | 10.09630 | -26.13461 | 32973 ft | 507 kts | 206° |
| 2026-04-29 20:35 | 10.03216 | -26.16439 | 32969 ft | 507 kts | 206° |
| 2026-04-29 20:36 | 9.96790 | -26.19420 | 32972 ft | 507 kts | 206° |
| 2026-04-29 20:36 | 9.90406 | -26.22380 | 32973 ft | 507 kts | 206° |
| 2026-04-29 20:37 | 9.83981 | -26.25359 | 32970 ft | 507 kts | 206° |
| 2026-04-29 20:37 | 9.77560 | -26.28333 | 32969 ft | 507 kts | 206° |
| 2026-04-29 20:38 | 9.71134 | -26.31308 | 32970 ft | 507 kts | 206° |
| 2026-04-29 20:38 | 9.64711 | -26.34281 | 32965 ft | 507 kts | 206° |
| 2026-04-29 20:39 | 9.58297 | -26.37249 | 32973 ft | 507 kts | 206° |
| 2026-04-29 20:39 | 9.51880 | -26.40217 | 32970 ft | 507 kts | 206° |
| 2026-04-29 20:40 | 9.45462 | -26.43184 | 32973 ft | 507 kts | 206° |
| 2026-04-29 20:40 | 9.39080 | -26.46135 | 32971 ft | 508 kts | 206° |
| 2026-04-29 20:41 | 9.32649 | -26.49105 | 32969 ft | 508 kts | 206° |
| 2026-04-29 20:41 | 9.26218 | -26.52072 | 32969 ft | 508 kts | 206° |
| 2026-04-29 20:42 | 9.19783 | -26.55041 | 32966 ft | 507 kts | 206° |
| 2026-04-29 20:42 | 9.13357 | -26.58006 | 32964 ft | 507 kts | 206° |
| 2026-04-29 20:43 | 9.06929 | -26.60970 | 32968 ft | 507 kts | 206° |
| 2026-04-29 20:43 | 9.00502 | -26.63934 | 32964 ft | 507 kts | 206° |
| 2026-04-29 20:44 | 8.94110 | -26.66880 | 32970 ft | 507 kts | 206° |
| 2026-04-29 20:44 | 8.87678 | -26.69844 | 32967 ft | 507 kts | 206° |
| 2026-04-29 20:45 | 8.81252 | -26.72802 | 32965 ft | 507 kts | 206° |
| 2026-04-29 20:45 | 8.74823 | -26.75761 | 32966 ft | 508 kts | 206° |
| 2026-04-29 20:46 | 8.68428 | -26.78705 | 32965 ft | 508 kts | 206° |
| 2026-04-29 20:46 | 8.61990 | -26.81666 | 32966 ft | 508 kts | 206° |
| 2026-04-29 20:47 | 8.55559 | -26.84622 | 32966 ft | 508 kts | 206° |
| 2026-04-29 20:47 | 8.49123 | -26.87580 | 32967 ft | 508 kts | 206° |
| 2026-04-29 20:48 | 8.42692 | -26.90531 | 32966 ft | 507 kts | 206° |
| 2026-04-29 20:48 | 8.36264 | -26.93481 | 32960 ft | 507 kts | 206° |
| 2026-04-29 20:49 | 8.29827 | -26.96433 | 32963 ft | 508 kts | 206° |
| 2026-04-29 20:49 | 8.23399 | -26.99381 | 32963 ft | 508 kts | 206° |
| 2026-04-29 20:50 | 8.17004 | -27.02313 | 32963 ft | 508 kts | 206° |
| 2026-04-29 20:50 | 8.10554 | -27.05270 | 32962 ft | 508 kts | 206° |
| 2026-04-29 20:51 | 8.04111 | -27.08221 | 32964 ft | 508 kts | 206° |
| 2026-04-29 20:51 | 7.97710 | -27.11153 | 32963 ft | 508 kts | 206° |
| 2026-04-29 20:52 | 7.91271 | -27.14101 | 32963 ft | 508 kts | 206° |
| 2026-04-29 20:52 | 7.84830 | -27.17048 | 32964 ft | 508 kts | 206° |
| 2026-04-29 20:53 | 7.78393 | -27.19993 | 32961 ft | 507 kts | 206° |
| 2026-04-29 20:53 | 7.71961 | -27.22936 | 32960 ft | 507 kts | 206° |
| 2026-04-29 20:54 | 7.62356 | -27.27327 | 32963 ft | 507 kts | 205° |
| 2026-04-29 20:55 | 7.55929 | -27.30264 | 32960 ft | 507 kts | 206° |
| 2026-04-29 20:55 | 7.49503 | -27.33199 | 32960 ft | 507 kts | 205° |
| 2026-04-29 20:56 | 7.43069 | -27.36138 | 32963 ft | 507 kts | 206° |
| 2026-04-29 20:56 | 7.36634 | -27.39078 | 32960 ft | 507 kts | 206° |
| 2026-04-29 20:57 | 7.30201 | -27.42016 | 32960 ft | 508 kts | 206° |
| 2026-04-29 20:57 | 7.23767 | -27.44950 | 32960 ft | 507 kts | 206° |
| 2026-04-29 20:58 | 7.17377 | -27.47865 | 32964 ft | 507 kts | 205° |
| 2026-04-29 20:58 | 7.10948 | -27.50795 | 32958 ft | 506 kts | 205° |
| 2026-04-29 20:59 | 7.04523 | -27.53723 | 32957 ft | 507 kts | 205° |
| 2026-04-29 20:59 | 6.98082 | -27.56657 | 32958 ft | 508 kts | 206° |
| 2026-04-29 21:00 | 6.91640 | -27.59594 | 32956 ft | 508 kts | 205° |
| 2026-04-29 21:00 | 6.85228 | -27.62515 | 32955 ft | 508 kts | 205° |
| 2026-04-29 21:01 | 6.78784 | -27.65452 | 32954 ft | 508 kts | 205° |
| 2026-04-29 21:01 | 6.72337 | -27.68385 | 32954 ft | 508 kts | 205° |
| 2026-04-29 21:02 | 6.65886 | -27.71318 | 32953 ft | 509 kts | 205° |
| 2026-04-29 21:02 | 6.59442 | -27.74248 | 32952 ft | 508 kts | 205° |
| 2026-04-29 21:03 | 6.53035 | -27.77164 | 32953 ft | 509 kts | 205° |
| 2026-04-29 21:03 | 6.46594 | -27.80095 | 32952 ft | 507 kts | 205° |
| 2026-04-29 21:04 | 6.40165 | -27.83015 | 32952 ft | 507 kts | 205° |
| 2026-04-29 21:04 | 6.33743 | -27.85933 | 32952 ft | 507 kts | 205° |
| 2026-04-29 21:05 | 6.27313 | -27.88854 | 32951 ft | 507 kts | 205° |
| 2026-04-29 21:05 | 6.20891 | -27.91771 | 32953 ft | 507 kts | 205° |
| 2026-04-29 21:06 | 6.14461 | -27.94691 | 32948 ft | 507 kts | 205° |
| 2026-04-29 21:06 | 6.08037 | -27.97607 | 32949 ft | 507 kts | 205° |
| 2026-04-29 21:07 | 6.01612 | -28.00524 | 32950 ft | 507 kts | 205° |
| 2026-04-29 21:07 | 5.95179 | -28.03443 | 32949 ft | 507 kts | 205° |
| 2026-04-29 21:08 | 5.88785 | -28.06342 | 32943 ft | 507 kts | 205° |
| 2026-04-29 21:08 | 5.82353 | -28.09260 | 32943 ft | 507 kts | 205° |
| 2026-04-29 21:09 | 5.75924 | -28.12174 | 32946 ft | 506 kts | 205° |
| 2026-04-29 21:09 | 5.69502 | -28.15085 | 32947 ft | 506 kts | 205° |
| 2026-04-29 21:10 | 5.63076 | -28.17997 | 32939 ft | 507 kts | 205° |
| 2026-04-29 21:10 | 5.56649 | -28.20909 | 32942 ft | 507 kts | 205° |
| 2026-04-29 21:11 | 5.50221 | -28.23820 | 32945 ft | 507 kts | 205° |
| 2026-04-29 21:11 | 5.43796 | -28.26730 | 32941 ft | 507 kts | 205° |
| 2026-04-29 21:12 | 5.37365 | -28.29640 | 32938 ft | 507 kts | 205° |
| 2026-04-29 21:12 | 5.30973 | -28.32534 | 32938 ft | 507 kts | 205° |
| 2026-04-29 21:13 | 5.24543 | -28.35444 | 32940 ft | 507 kts | 205° |
| 2026-04-29 21:13 | 5.18106 | -28.38357 | 32942 ft | 507 kts | 205° |
| 2026-04-29 21:14 | 5.11666 | -28.41270 | 32940 ft | 507 kts | 205° |
| 2026-04-29 21:14 | 5.05222 | -28.44183 | 32938 ft | 507 kts | 205° |
| 2026-04-29 21:15 | 4.98786 | -28.47092 | 32937 ft | 508 kts | 205° |
| 2026-04-29 21:15 | 4.92340 | -28.50005 | 32938 ft | 508 kts | 205° |
| 2026-04-29 21:16 | 4.85894 | -28.52917 | 32939 ft | 508 kts | 205° |
| 2026-04-29 21:16 | 4.79463 | -28.55824 | 32939 ft | 508 kts | 205° |
| 2026-04-29 21:17 | 4.73017 | -28.58734 | 32937 ft | 508 kts | 205° |
| 2026-04-29 21:17 | 4.66572 | -28.61647 | 32936 ft | 508 kts | 205° |
| 2026-04-29 21:18 | 4.60137 | -28.64553 | 32937 ft | 507 kts | 205° |
| 2026-04-29 21:18 | 4.53700 | -28.67459 | 32939 ft | 507 kts | 204° |
| 2026-04-29 21:19 | 4.47313 | -28.70340 | 32936 ft | 505 kts | 204° |
| 2026-04-29 21:19 | 4.40892 | -28.73237 | 32936 ft | 505 kts | 204° |
| 2026-04-29 21:20 | 4.34481 | -28.76131 | 32937 ft | 505 kts | 204° |
| 2026-04-29 21:20 | 4.29147 | -28.78539 | 32936 ft | 505 kts | 204° |
| 2026-04-29 21:21 | 4.22741 | -28.81428 | 32930 ft | 505 kts | 204° |
| 2026-04-29 21:21 | 4.16373 | -28.84299 | 32933 ft | 505 kts | 204° |
| 2026-04-29 21:22 | 4.09902 | -28.87216 | 32937 ft | 505 kts | 204° |
| 2026-04-29 21:22 | 4.03488 | -28.90107 | 32936 ft | 505 kts | 204° |
| 2026-04-29 21:23 | 3.97123 | -28.92978 | 32933 ft | 505 kts | 204° |
| 2026-04-29 21:23 | 3.90716 | -28.95865 | 32934 ft | 505 kts | 204° |
| 2026-04-29 21:24 | 3.84313 | -28.98749 | 32935 ft | 504 kts | 204° |
| 2026-04-29 21:24 | 3.77918 | -29.01628 | 32932 ft | 503 kts | 204° |
| 2026-04-29 21:25 | 3.71524 | -29.04508 | 32929 ft | 504 kts | 204° |
| 2026-04-29 21:25 | 3.65128 | -29.07389 | 32931 ft | 504 kts | 204° |
| 2026-04-29 21:26 | 3.58790 | -29.10244 | 32929 ft | 502 kts | 204° |
| 2026-04-29 21:26 | 3.52406 | -29.13121 | 32930 ft | 501 kts | 204° |
| 2026-04-29 21:27 | 3.46045 | -29.15980 | 32928 ft | 501 kts | 204° |
| 2026-04-29 21:27 | 3.39677 | -29.18846 | 32931 ft | 502 kts | 204° |
| 2026-04-29 21:28 | 3.33310 | -29.21713 | 32930 ft | 502 kts | 204° |
| 2026-04-29 21:28 | 3.26950 | -29.24578 | 32927 ft | 501 kts | 203° |
| 2026-04-29 21:29 | 3.20606 | -29.27428 | 32927 ft | 499 kts | 204° |
| 2026-04-29 21:29 | 3.14308 | -29.30260 | 32930 ft | 499 kts | 204° |
| 2026-04-29 21:30 | 3.07974 | -29.33110 | 32931 ft | 499 kts | 204° |
| 2026-04-29 21:30 | 3.01628 | -29.35963 | 32930 ft | 499 kts | 204° |
| 2026-04-29 21:31 | 2.95291 | -29.38819 | 32929 ft | 499 kts | 204° |
| 2026-04-29 21:31 | 2.88956 | -29.41665 | 32927 ft | 499 kts | 204° |
| 2026-04-29 21:32 | 2.82625 | -29.44509 | 32927 ft | 499 kts | 203° |
| 2026-04-29 21:32 | 2.76284 | -29.47357 | 32928 ft | 499 kts | 204° |
| 2026-04-29 21:33 | 2.69956 | -29.50201 | 32930 ft | 499 kts | 204° |
| 2026-04-29 21:33 | 2.63650 | -29.53036 | 32926 ft | 499 kts | 203° |
| 2026-04-29 21:34 | 2.57289 | -29.55892 | 32926 ft | 502 kts | 203° |
| 2026-04-29 21:34 | 2.50898 | -29.58762 | 32922 ft | 501 kts | 203° |
| 2026-04-29 21:35 | 2.44550 | -29.61617 | 32928 ft | 500 kts | 203° |
| 2026-04-29 21:35 | 2.38223 | -29.64444 | 32927 ft | 501 kts | 204° |
| 2026-04-29 21:36 | 2.31860 | -29.67302 | 32925 ft | 500 kts | 203° |
| 2026-04-29 21:36 | 2.25504 | -29.70164 | 32925 ft | 501 kts | 203° |
| 2026-04-29 21:37 | 2.19145 | -29.73022 | 32925 ft | 501 kts | 203° |
| 2026-04-29 21:37 | 2.12788 | -29.75877 | 32924 ft | 501 kts | 203° |
| 2026-04-29 21:38 | 2.06467 | -29.78717 | 32923 ft | 501 kts | 203° |
| 2026-04-29 21:38 | 2.00108 | -29.81571 | 32925 ft | 501 kts | 203° |
| 2026-04-29 21:39 | 1.93735 | -29.84430 | 32922 ft | 501 kts | 203° |
| 2026-04-29 21:39 | 1.87369 | -29.87288 | 32922 ft | 501 kts | 203° |
| 2026-04-29 21:40 | 1.80999 | -29.90145 | 32922 ft | 501 kts | 203° |
| 2026-04-29 21:40 | 1.74639 | -29.93000 | 32922 ft | 501 kts | 203° |
| 2026-04-29 21:41 | 1.68315 | -29.95837 | 32922 ft | 501 kts | 203° |
| 2026-04-29 21:41 | 1.61947 | -29.98694 | 32922 ft | 502 kts | 203° |
| 2026-04-29 21:42 | 1.55578 | -30.01556 | 32925 ft | 502 kts | 203° |
| 2026-04-29 21:42 | 1.49211 | -30.04411 | 32925 ft | 502 kts | 203° |
| 2026-04-29 21:43 | 1.42837 | -30.07268 | 32921 ft | 502 kts | 203° |
| 2026-04-29 21:43 | 1.36460 | -30.10128 | 32919 ft | 502 kts | 203° |
| 2026-04-29 21:44 | 1.30130 | -30.12969 | 32926 ft | 502 kts | 203° |
| 2026-04-29 21:44 | 1.23759 | -30.15826 | 32925 ft | 502 kts | 203° |
| 2026-04-29 21:45 | 1.17379 | -30.18686 | 32922 ft | 502 kts | 203° |
| 2026-04-29 21:45 | 1.11010 | -30.21542 | 32922 ft | 502 kts | 203° |
| 2026-04-29 21:46 | 1.04631 | -30.24402 | 32921 ft | 502 kts | 203° |
| 2026-04-29 21:46 | 0.98306 | -30.27239 | 32922 ft | 502 kts | 203° |
| 2026-04-29 21:47 | 0.91928 | -30.30100 | 32926 ft | 502 kts | 203° |
| 2026-04-29 21:47 | 0.85536 | -30.32965 | 32925 ft | 503 kts | 203° |
| 2026-04-29 21:48 | 0.79143 | -30.35831 | 32922 ft | 503 kts | 203° |
| 2026-04-29 21:48 | 0.72755 | -30.38693 | 32922 ft | 503 kts | 203° |
| 2026-04-29 21:49 | 0.66370 | -30.41557 | 32925 ft | 503 kts | 203° |
| 2026-04-29 21:49 | 0.59986 | -30.44421 | 32922 ft | 504 kts | 203° |
| 2026-04-29 21:50 | 0.53583 | -30.47294 | 32920 ft | 504 kts | 203° |
| 2026-04-29 21:50 | 0.47214 | -30.50148 | 32919 ft | 504 kts | 203° |
| 2026-04-29 21:51 | 0.40805 | -30.53020 | 32918 ft | 504 kts | 203° |
| 2026-04-29 21:51 | 0.31201 | -30.57322 | 32918 ft | 504 kts | 203° |
| 2026-04-29 21:52 | 0.24791 | -30.60197 | 32922 ft | 505 kts | 203° |
| 2026-04-29 21:52 | 0.18363 | -30.63080 | 32922 ft | 505 kts | 203° |
| 2026-04-29 21:53 | 0.11986 | -30.65941 | 32922 ft | 506 kts | 203° |
| 2026-04-29 21:53 | 0.05560 | -30.68820 | 32922 ft | 505 kts | 203° |
| 2026-04-29 21:54 | -0.00857 | -30.71695 | 32925 ft | 505 kts | 203° |
| 2026-04-29 21:54 | -0.07274 | -30.74570 | 32922 ft | 506 kts | 203° |
| 2026-04-29 21:55 | -0.13697 | -30.77449 | 32919 ft | 506 kts | 203° |
| 2026-04-29 21:55 | -0.20092 | -30.80314 | 32919 ft | 506 kts | 203° |
| 2026-04-29 21:56 | -0.26522 | -30.83197 | 32922 ft | 506 kts | 203° |
| 2026-04-29 21:56 | -0.32948 | -30.86076 | 32923 ft | 505 kts | 203° |
| 2026-04-29 21:57 | -0.39374 | -30.88955 | 32922 ft | 506 kts | 203° |
| 2026-04-29 21:57 | -0.45798 | -30.91836 | 32922 ft | 506 kts | 203° |
| 2026-04-29 21:58 | -0.52222 | -30.94717 | 32922 ft | 506 kts | 203° |
| 2026-04-29 21:58 | -0.58644 | -30.97599 | 32917 ft | 506 kts | 202° |
| 2026-04-29 21:59 | -0.65068 | -31.00476 | 32920 ft | 506 kts | 202° |
| 2026-04-29 21:59 | -0.71441 | -31.03333 | 32922 ft | 505 kts | 203° |
| 2026-04-29 22:00 | -0.77857 | -31.06209 | 32925 ft | 505 kts | 203° |
| 2026-04-29 22:00 | -0.84276 | -31.09087 | 32925 ft | 505 kts | 203° |
| 2026-04-29 22:01 | -0.90731 | -31.11868 | 32922 ft | 505 kts | 201° |
| 2026-04-29 22:01 | -0.97214 | -31.14575 | 32922 ft | 505 kts | 201° |
| 2026-04-29 22:02 | -1.03694 | -31.17295 | 32922 ft | 505 kts | 201° |
| 2026-04-29 22:02 | -1.10157 | -31.20025 | 32922 ft | 504 kts | 202° |
| 2026-04-29 22:03 | -1.16584 | -31.22752 | 32922 ft | 504 kts | 202° |
| 2026-04-29 22:03 | -1.23047 | -31.25493 | 32919 ft | 505 kts | 202° |
| 2026-04-29 22:04 | -1.29514 | -31.28235 | 32920 ft | 505 kts | 202° |
| 2026-04-29 22:04 | -1.35981 | -31.30975 | 32920 ft | 505 kts | 202° |
| 2026-04-29 22:05 | -1.42446 | -31.33715 | 32922 ft | 504 kts | 202° |
| 2026-04-29 22:06 | -1.52140 | -31.37824 | 32922 ft | 504 kts | 202° |
| 2026-04-29 22:06 | -1.58602 | -31.40562 | 32925 ft | 504 kts | 202° |
| 2026-04-29 22:07 | -1.65023 | -31.43285 | 32926 ft | 504 kts | 202° |
| 2026-04-29 22:07 | -1.71476 | -31.46020 | 32925 ft | 504 kts | 202° |
| 2026-04-29 22:08 | -1.77927 | -31.48757 | 32925 ft | 504 kts | 202° |
| 2026-04-29 22:08 | -1.84393 | -31.51499 | 32925 ft | 504 kts | 202° |
| 2026-04-29 22:09 | -1.90848 | -31.54237 | 32925 ft | 503 kts | 202° |
| 2026-04-29 22:09 | -1.96215 | -31.56514 | 32925 ft | 503 kts | 202° |
| 2026-04-29 22:10 | -2.02665 | -31.59249 | 32924 ft | 503 kts | 202° |
| 2026-04-29 22:10 | -2.10151 | -31.62425 | 32925 ft | 503 kts | 202° |
| 2026-04-29 22:11 | -2.15516 | -31.64700 | 32925 ft | 503 kts | 202° |
| 2026-04-29 22:11 | -2.21962 | -31.67435 | 32924 ft | 503 kts | 202° |
| 2026-04-29 22:12 | -2.28405 | -31.70168 | 32923 ft | 503 kts | 202° |
| 2026-04-29 22:12 | -2.34848 | -31.72902 | 32925 ft | 503 kts | 202° |
| 2026-04-29 22:13 | -2.41289 | -31.75636 | 32925 ft | 502 kts | 202° |
| 2026-04-29 22:13 | -2.47724 | -31.78369 | 32925 ft | 503 kts | 202° |
| 2026-04-29 22:14 | -2.54167 | -31.81103 | 32925 ft | 503 kts | 202° |
| 2026-04-29 22:14 | -2.60617 | -31.83840 | 32925 ft | 504 kts | 202° |
| 2026-04-29 22:15 | -2.67078 | -31.86580 | 32925 ft | 503 kts | 202° |
| 2026-04-29 22:15 | -2.73516 | -31.89316 | 32925 ft | 503 kts | 202° |
| 2026-04-29 22:16 | -2.79925 | -31.92038 | 32925 ft | 503 kts | 202° |
| 2026-04-29 22:16 | -2.86370 | -31.94777 | 32925 ft | 503 kts | 202° |
| 2026-04-29 22:17 | -2.92819 | -31.97516 | 32925 ft | 503 kts | 202° |
| 2026-04-29 22:17 | -2.99260 | -32.00254 | 32925 ft | 502 kts | 202° |
| 2026-04-29 22:18 | -3.05697 | -32.02988 | 32925 ft | 502 kts | 202° |
| 2026-04-29 22:18 | -3.12133 | -32.05718 | 32925 ft | 502 kts | 202° |
| 2026-04-29 22:19 | -3.18571 | -32.08456 | 32925 ft | 502 kts | 201° |
| 2026-04-29 22:19 | -3.25000 | -32.11190 | 32926 ft | 502 kts | 202° |
| 2026-04-29 22:20 | -3.31376 | -32.14064 | 32925 ft | 503 kts | 206° |
| 2026-04-29 22:20 | -3.37551 | -32.17402 | 32925 ft | 504 kts | 208° |
| 2026-04-29 22:21 | -3.43657 | -32.20758 | 32923 ft | 504 kts | 207° |
| 2026-04-29 22:21 | -3.49837 | -32.24073 | 32925 ft | 504 kts | 207° |
| 2026-04-29 22:22 | -3.56029 | -32.27347 | 32925 ft | 503 kts | 207° |
| 2026-04-29 22:22 | -3.62236 | -32.30618 | 32928 ft | 504 kts | 207° |
| 2026-04-29 22:23 | -3.68444 | -32.33890 | 32934 ft | 504 kts | 206° |
| 2026-04-29 22:23 | -3.74653 | -32.37169 | 32938 ft | 504 kts | 207° |
| 2026-04-29 22:24 | -3.80849 | -32.40442 | 32937 ft | 503 kts | 207° |
| 2026-04-29 22:24 | -3.87008 | -32.43694 | 32938 ft | 504 kts | 207° |
| 2026-04-29 22:25 | -3.93241 | -32.46921 | 32940 ft | 504 kts | 206° |
| 2026-04-29 22:25 | -3.99488 | -32.50110 | 32934 ft | 504 kts | 206° |
| 2026-04-29 22:26 | -4.05737 | -32.53310 | 32932 ft | 504 kts | 206° |
| 2026-04-29 22:26 | -4.11978 | -32.56520 | 32928 ft | 504 kts | 206° |
| 2026-04-29 22:27 | -4.18222 | -32.59735 | 32920 ft | 504 kts | 207° |
| 2026-04-29 22:27 | -4.24477 | -32.62956 | 32922 ft | 506 kts | 206° |
| 2026-04-29 22:28 | -4.30692 | -32.66156 | 32923 ft | 505 kts | 207° |
| 2026-04-29 22:28 | -4.36947 | -32.69377 | 32925 ft | 505 kts | 207° |
| 2026-04-29 22:29 | -4.43208 | -32.72602 | 32925 ft | 505 kts | 207° |
| 2026-04-29 22:29 | -4.49467 | -32.75826 | 32930 ft | 505 kts | 207° |
| 2026-04-29 22:30 | -4.55736 | -32.79057 | 32930 ft | 507 kts | 207° |
| 2026-04-29 22:30 | -4.61978 | -32.82276 | 32930 ft | 507 kts | 207° |
| 2026-04-29 22:31 | -4.68262 | -32.85508 | 32928 ft | 507 kts | 207° |
| 2026-04-29 22:31 | -4.74552 | -32.88738 | 32927 ft | 507 kts | 207° |
| 2026-04-29 22:32 | -4.80791 | -32.91941 | 32929 ft | 506 kts | 207° |
| 2026-04-29 22:32 | -4.87076 | -32.95169 | 32927 ft | 507 kts | 207° |
| 2026-04-29 22:33 | -4.93360 | -32.98400 | 32927 ft | 507 kts | 207° |
| 2026-04-29 22:33 | -4.99644 | -33.01634 | 32927 ft | 507 kts | 207° |
| 2026-04-29 22:34 | -5.05934 | -33.04870 | 32926 ft | 507 kts | 207° |
| 2026-04-29 22:34 | -5.12222 | -33.08104 | 32930 ft | 507 kts | 207° |
| 2026-04-29 22:35 | -5.18487 | -33.11330 | 32927 ft | 505 kts | 207° |
| 2026-04-29 22:35 | -5.24708 | -33.14532 | 32931 ft | 505 kts | 207° |
| 2026-04-29 22:36 | -5.30969 | -33.17754 | 32926 ft | 505 kts | 207° |
| 2026-04-29 22:36 | -5.37231 | -33.20979 | 32930 ft | 505 kts | 207° |
| 2026-04-29 22:37 | -5.43492 | -33.24205 | 32932 ft | 504 kts | 206° |
| 2026-04-29 22:37 | -5.49727 | -33.27418 | 32931 ft | 503 kts | 206° |
| 2026-04-29 22:38 | -5.55951 | -33.30624 | 32929 ft | 503 kts | 206° |
| 2026-04-29 22:38 | -5.62135 | -33.33812 | 32930 ft | 503 kts | 206° |
| 2026-04-29 22:39 | -5.68367 | -33.37026 | 32930 ft | 503 kts | 206° |
| 2026-04-29 22:39 | -5.74596 | -33.40238 | 32934 ft | 502 kts | 206° |
| 2026-04-29 22:40 | -5.80828 | -33.43452 | 32933 ft | 502 kts | 206° |
| 2026-04-29 22:40 | -5.86991 | -33.46632 | 32933 ft | 501 kts | 206° |
| 2026-04-29 22:41 | -5.93197 | -33.49835 | 32931 ft | 501 kts | 206° |
| 2026-04-29 22:41 | -5.99404 | -33.53040 | 32933 ft | 501 kts | 206° |
| 2026-04-29 22:42 | -6.05617 | -33.56251 | 32933 ft | 501 kts | 206° |
| 2026-04-29 22:42 | -6.11776 | -33.59429 | 32935 ft | 500 kts | 206° |
| 2026-04-29 22:43 | -6.17967 | -33.62626 | 32937 ft | 500 kts | 205° |
| 2026-04-29 22:43 | -6.24161 | -33.65824 | 32936 ft | 500 kts | 205° |
| 2026-04-29 22:44 | -6.30348 | -33.69024 | 32929 ft | 500 kts | 206° |
| 2026-04-29 22:44 | -6.36524 | -33.72220 | 32935 ft | 497 kts | 206° |
| 2026-04-29 22:45 | -6.42676 | -33.75403 | 32938 ft | 497 kts | 205° |
| 2026-04-29 22:45 | -6.48826 | -33.78583 | 32939 ft | 497 kts | 205° |
| 2026-04-29 22:46 | -6.54981 | -33.81767 | 32936 ft | 497 kts | 206° |
| 2026-04-29 22:46 | -6.61084 | -33.84929 | 32938 ft | 497 kts | 206° |
| 2026-04-29 22:47 | -6.67233 | -33.88114 | 32938 ft | 497 kts | 206° |
| 2026-04-29 22:47 | -6.73388 | -33.91300 | 32939 ft | 497 kts | 205° |
| 2026-04-29 22:48 | -6.79537 | -33.94485 | 32939 ft | 497 kts | 205° |
| 2026-04-29 22:48 | -6.85682 | -33.97671 | 32941 ft | 496 kts | 206° |
| 2026-04-29 22:49 | -6.91824 | -34.00853 | 32940 ft | 496 kts | 206° |
| 2026-04-29 22:49 | -6.97966 | -34.04037 | 32941 ft | 497 kts | 206° |
| 2026-04-29 22:50 | -7.04114 | -34.07227 | 32942 ft | 497 kts | 206° |
| 2026-04-29 22:50 | -7.10224 | -34.10397 | 32944 ft | 497 kts | 206° |
| 2026-04-29 22:51 | -7.16380 | -34.13591 | 32939 ft | 497 kts | 206° |
| 2026-04-29 22:51 | -7.25606 | -34.18384 | 32939 ft | 497 kts | 206° |
| 2026-04-29 22:52 | -7.31759 | -34.21578 | 32934 ft | 498 kts | 206° |
| 2026-04-29 22:52 | -7.37915 | -34.24776 | 32936 ft | 498 kts | 206° |
| 2026-04-29 22:53 | -7.44025 | -34.27952 | 32938 ft | 497 kts | 206° |
| 2026-04-29 22:53 | -7.50166 | -34.31146 | 32939 ft | 497 kts | 206° |
| 2026-04-29 22:54 | -7.56321 | -34.34346 | 32936 ft | 497 kts | 206° |
| 2026-04-29 22:54 | -7.62487 | -34.37552 | 32935 ft | 498 kts | 206° |
| 2026-04-29 22:55 | -7.68646 | -34.40757 | 32938 ft | 498 kts | 206° |
| 2026-04-29 22:55 | -7.74808 | -34.43966 | 32936 ft | 498 kts | 205° |
| 2026-04-29 22:56 | -7.80910 | -34.47190 | 32937 ft | 498 kts | 206° |
| 2026-04-29 22:56 | -7.87018 | -34.50508 | 32936 ft | 499 kts | 207° |
| 2026-04-29 22:57 | -7.93130 | -34.53834 | 32937 ft | 499 kts | 206° |
| 2026-04-29 22:57 | -7.99251 | -34.57150 | 32936 ft | 499 kts | 206° |
| 2026-04-29 22:58 | -8.05373 | -34.60457 | 32935 ft | 499 kts | 206° |
| 2026-04-29 22:58 | -8.11494 | -34.63756 | 32934 ft | 498 kts | 205° |
| 2026-04-29 22:59 | -8.17467 | -34.66422 | 32938 ft | 498 kts | 201° |
| 2026-04-29 22:59 | -8.23835 | -34.69084 | 32938 ft | 498 kts | 200° |
| 2026-04-29 23:00 | -8.30249 | -34.71731 | 32940 ft | 498 kts | 200° |
| 2026-04-29 23:00 | -8.36660 | -34.74381 | 32945 ft | 498 kts | 200° |
| 2026-04-29 23:01 | -8.42028 | -34.76607 | 32944 ft | 498 kts | 200° |
| 2026-04-29 23:01 | -8.48404 | -34.79254 | 32949 ft | 498 kts | 200° |
| 2026-04-29 23:02 | -8.54824 | -34.81923 | 32949 ft | 498 kts | 201° |
| 2026-04-29 23:02 | -8.61242 | -34.84592 | 32955 ft | 498 kts | 201° |
| 2026-04-29 23:03 | -8.67652 | -34.87257 | 32957 ft | 499 kts | 201° |
| 2026-04-29 23:03 | -8.74036 | -34.89913 | 32962 ft | 499 kts | 200° |
| 2026-04-29 23:04 | -8.80448 | -34.92585 | 32960 ft | 498 kts | 200° |
| 2026-04-29 23:04 | -8.86863 | -34.95254 | 32966 ft | 498 kts | 200° |
| 2026-04-29 23:05 | -8.93280 | -34.97924 | 32965 ft | 499 kts | 200° |
| 2026-04-29 23:05 | -8.99688 | -35.00594 | 32969 ft | 498 kts | 201° |
| 2026-04-29 23:06 | -9.06039 | -35.03409 | 32974 ft | 500 kts | 206° |
| 2026-04-29 23:06 | -9.12138 | -35.06801 | 32972 ft | 501 kts | 207° |
| 2026-04-29 23:07 | -9.18186 | -35.10301 | 32971 ft | 501 kts | 208° |
| 2026-04-29 23:07 | -9.24228 | -35.13817 | 32972 ft | 501 kts | 208° |
| 2026-04-29 23:08 | -9.30277 | -35.17327 | 32973 ft | 501 kts | 208° |
| 2026-04-29 23:08 | -9.36288 | -35.20807 | 32976 ft | 501 kts | 208° |
| 2026-04-29 23:09 | -9.42344 | -35.24314 | 32974 ft | 501 kts | 208° |
| 2026-04-29 23:09 | -9.48397 | -35.27819 | 32974 ft | 501 kts | 208° |
| 2026-04-29 23:10 | -9.54449 | -35.31325 | 32977 ft | 501 kts | 208° |
| 2026-04-29 23:10 | -9.60506 | -35.34835 | 32978 ft | 501 kts | 208° |
| 2026-04-29 23:11 | -9.66559 | -35.38345 | 32978 ft | 501 kts | 208° |
| 2026-04-29 23:11 | -9.72616 | -35.41858 | 32977 ft | 501 kts | 208° |
| 2026-04-29 23:12 | -9.78624 | -35.45347 | 32979 ft | 501 kts | 208° |
| 2026-04-29 23:12 | -9.84675 | -35.48861 | 32980 ft | 501 kts | 208° |
| 2026-04-29 23:13 | -9.90722 | -35.52374 | 32979 ft | 501 kts | 208° |
| 2026-04-29 23:13 | -9.96775 | -35.55892 | 32982 ft | 501 kts | 208° |
| 2026-04-29 23:14 | -10.02820 | -35.59407 | 32982 ft | 501 kts | 208° |
| 2026-04-29 23:14 | -10.08839 | -35.62907 | 32982 ft | 501 kts | 208° |
| 2026-04-29 23:15 | -10.14884 | -35.66426 | 32982 ft | 501 kts | 208° |
| 2026-04-29 23:15 | -10.20924 | -35.69944 | 32982 ft | 500 kts | 208° |
| 2026-04-29 23:16 | -10.26955 | -35.73457 | 32979 ft | 500 kts | 208° |
| 2026-04-29 23:16 | -10.32995 | -35.76976 | 32979 ft | 500 kts | 208° |
| 2026-04-29 23:17 | -10.39038 | -35.80502 | 32979 ft | 501 kts | 208° |
| 2026-04-29 23:17 | -10.45084 | -35.84030 | 32979 ft | 500 kts | 208° |
| 2026-04-29 23:18 | -10.51122 | -35.87549 | 32982 ft | 500 kts | 208° |
| 2026-04-29 23:18 | -10.57120 | -35.91049 | 32983 ft | 500 kts | 208° |
| 2026-04-29 23:19 | -10.63158 | -35.94576 | 32984 ft | 500 kts | 208° |
| 2026-04-29 23:19 | -10.69195 | -35.98106 | 32985 ft | 500 kts | 208° |
| 2026-04-29 23:20 | -10.75226 | -36.01631 | 32985 ft | 500 kts | 208° |
| 2026-04-29 23:20 | -10.81255 | -36.05157 | 32985 ft | 500 kts | 208° |
| 2026-04-29 23:21 | -10.87252 | -36.08664 | 32988 ft | 500 kts | 208° |
| 2026-04-29 23:21 | -10.93285 | -36.12196 | 32987 ft | 500 kts | 208° |
| 2026-04-29 23:22 | -10.99314 | -36.15728 | 32990 ft | 499 kts | 208° |
| 2026-04-29 23:22 | -11.05343 | -36.19261 | 32991 ft | 499 kts | 208° |
| 2026-04-29 23:23 | -11.11369 | -36.22794 | 32991 ft | 499 kts | 208° |
| 2026-04-29 23:23 | -11.17405 | -36.26205 | 32990 ft | 499 kts | 206° |
| 2026-04-29 23:24 | -11.23599 | -36.29395 | 32991 ft | 498 kts | 205° |
| 2026-04-29 23:24 | -11.29794 | -36.32565 | 32990 ft | 498 kts | 205° |
| 2026-04-29 23:25 | -11.35976 | -36.35776 | 32992 ft | 498 kts | 205° |
| 2026-04-29 23:25 | -11.42159 | -36.39018 | 32996 ft | 499 kts | 205° |
| 2026-04-29 23:26 | -11.48324 | -36.42256 | 32993 ft | 498 kts | 206° |
| 2026-04-29 23:26 | -11.54450 | -36.45475 | 32994 ft | 498 kts | 205° |
| 2026-04-29 23:27 | -11.60621 | -36.48717 | 32993 ft | 498 kts | 205° |
| 2026-04-29 23:27 | -11.66786 | -36.51958 | 32997 ft | 499 kts | 205° |
| 2026-04-29 23:28 | -11.72950 | -36.55200 | 32995 ft | 498 kts | 206° |
| 2026-04-29 23:28 | -11.79122 | -36.58449 | 32999 ft | 498 kts | 205° |
| 2026-04-29 23:29 | -11.85292 | -36.61697 | 32999 ft | 499 kts | 206° |
| 2026-04-29 23:29 | -11.91463 | -36.64946 | 32998 ft | 499 kts | 206° |
| 2026-04-29 23:30 | -11.97626 | -36.68192 | 33002 ft | 499 kts | 206° |
| 2026-04-29 23:30 | -12.03755 | -36.71424 | 33001 ft | 499 kts | 206° |
| 2026-04-29 23:31 | -12.09923 | -36.74678 | 33001 ft | 499 kts | 206° |
| 2026-04-29 23:31 | -12.16084 | -36.77930 | 33000 ft | 498 kts | 206° |
| 2026-04-29 23:32 | -12.22244 | -36.81183 | 33000 ft | 498 kts | 206° |
| 2026-04-29 23:32 | -12.28405 | -36.84438 | 33001 ft | 498 kts | 206° |
| 2026-04-29 23:33 | -12.34570 | -36.87700 | 33002 ft | 498 kts | 206° |
| 2026-04-29 23:33 | -12.40731 | -36.90963 | 33009 ft | 499 kts | 205° |
| 2026-04-29 23:34 | -12.46900 | -36.94225 | 33005 ft | 499 kts | 206° |
| 2026-04-29 23:34 | -12.53028 | -36.97467 | 33004 ft | 498 kts | 206° |
| 2026-04-29 23:35 | -12.59190 | -37.00730 | 33001 ft | 498 kts | 206° |
| 2026-04-29 23:35 | -12.65348 | -37.03994 | 33005 ft | 498 kts | 206° |
| 2026-04-29 23:36 | -12.71502 | -37.07256 | 33004 ft | 498 kts | 206° |
| 2026-04-29 23:36 | -12.77669 | -37.10529 | 33003 ft | 499 kts | 206° |
| 2026-04-29 23:37 | -12.83827 | -37.13799 | 33007 ft | 498 kts | 206° |
| 2026-04-29 23:37 | -12.89989 | -37.17072 | 33007 ft | 498 kts | 206° |
| 2026-04-29 23:38 | -12.96140 | -37.20342 | 33008 ft | 498 kts | 206° |
| 2026-04-29 23:38 | -13.02255 | -37.23596 | 33011 ft | 498 kts | 206° |
| 2026-04-29 23:39 | -13.08403 | -37.26868 | 33010 ft | 498 kts | 206° |
| 2026-04-29 23:39 | -13.14552 | -37.30141 | 33010 ft | 498 kts | 206° |
| 2026-04-29 23:40 | -13.20702 | -37.33418 | 33014 ft | 498 kts | 206° |
| 2026-04-29 23:40 | -13.26858 | -37.36699 | 33018 ft | 498 kts | 205° |
| 2026-04-29 23:41 | -13.33011 | -37.39982 | 33013 ft | 498 kts | 206° |
| 2026-04-29 23:41 | -13.39174 | -37.43272 | 33018 ft | 499 kts | 206° |
| 2026-04-29 23:42 | -13.45338 | -37.46562 | 33018 ft | 499 kts | 206° |
| 2026-04-29 23:42 | -13.51453 | -37.49830 | 33017 ft | 498 kts | 206° |
| 2026-04-29 23:43 | -13.57599 | -37.53119 | 33017 ft | 498 kts | 206° |
| 2026-04-29 23:43 | -13.63759 | -37.56413 | 33017 ft | 498 kts | 206° |
| 2026-04-29 23:44 | -13.69914 | -37.59706 | 33019 ft | 499 kts | 206° |
| 2026-04-29 23:44 | -13.76080 | -37.63014 | 33017 ft | 500 kts | 206° |
| 2026-04-29 23:45 | -13.81956 | -37.66854 | 33021 ft | 501 kts | 213° |
| 2026-04-29 23:45 | -13.87588 | -37.71090 | 33021 ft | 502 kts | 216° |
| 2026-04-29 23:46 | -13.93067 | -37.75548 | 33022 ft | 503 kts | 217° |
| 2026-04-29 23:46 | -13.98481 | -37.80034 | 33020 ft | 503 kts | 217° |
| 2026-04-29 23:47 | -14.03945 | -37.84560 | 33019 ft | 503 kts | 217° |
| 2026-04-29 23:47 | -14.09412 | -37.89081 | 33021 ft | 503 kts | 217° |
| 2026-04-29 23:48 | -14.14868 | -37.93589 | 33019 ft | 503 kts | 217° |
| 2026-04-29 23:48 | -14.20332 | -37.98105 | 33025 ft | 504 kts | 217° |
| 2026-04-29 23:49 | -14.25805 | -38.02629 | 33022 ft | 504 kts | 217° |
| 2026-04-29 23:49 | -14.31238 | -38.07128 | 33026 ft | 504 kts | 217° |
| 2026-04-29 23:50 | -14.36707 | -38.11659 | 33025 ft | 504 kts | 217° |
| 2026-04-29 23:51 | -14.44918 | -38.18467 | 33027 ft | 505 kts | 217° |
| 2026-04-29 23:51 | -14.50431 | -38.23039 | 33027 ft | 515 kts | 217° |
| 2026-04-29 23:52 | -14.55078 | -38.26895 | 33024 ft | 516 kts | 217° |
| 2026-04-29 23:52 | -14.60683 | -38.31552 | 33028 ft | 517 kts | 217° |
| 2026-04-29 23:53 | -14.66287 | -38.36213 | 33026 ft | 517 kts | 217° |
| 2026-04-29 23:53 | -14.71894 | -38.40876 | 33032 ft | 517 kts | 217° |
| 2026-04-29 23:54 | -14.77465 | -38.45512 | 33028 ft | 517 kts | 217° |
| 2026-04-29 23:54 | -14.83069 | -38.50181 | 33027 ft | 517 kts | 217° |
| 2026-04-29 23:55 | -14.88667 | -38.54848 | 33028 ft | 517 kts | 217° |
| 2026-04-29 23:55 | -14.94270 | -38.59521 | 33031 ft | 517 kts | 217° |
| 2026-04-29 23:56 | -14.99872 | -38.64197 | 33030 ft | 517 kts | 217° |
| 2026-04-29 23:56 | -15.05472 | -38.68875 | 33035 ft | 517 kts | 217° |
| 2026-04-29 23:57 | -15.11073 | -38.73557 | 33033 ft | 517 kts | 217° |
| 2026-04-29 23:57 | -15.16674 | -38.78241 | 33033 ft | 517 kts | 217° |
| 2026-04-29 23:58 | -15.22245 | -38.82904 | 33035 ft | 518 kts | 217° |
| 2026-04-29 23:58 | -15.27842 | -38.87592 | 33036 ft | 518 kts | 217° |
| 2026-04-29 23:59 | -15.33452 | -38.92294 | 33036 ft | 518 kts | 217° |
| 2026-04-29 23:59 | -15.39029 | -38.96971 | 33041 ft | 518 kts | 217° |
| 2026-04-30 00:00 | -15.44628 | -39.01671 | 33042 ft | 518 kts | 217° |
| 2026-04-30 00:00 | -15.50231 | -39.06377 | 33047 ft | 518 kts | 217° |
| 2026-04-30 00:01 | -15.55838 | -39.11091 | 33047 ft | 518 kts | 217° |
| 2026-04-30 00:01 | -15.61437 | -39.15800 | 33046 ft | 518 kts | 217° |
| 2026-04-30 00:02 | -15.67047 | -39.20520 | 33049 ft | 519 kts | 217° |
| 2026-04-30 00:02 | -15.72654 | -39.25245 | 33051 ft | 519 kts | 217° |
| 2026-04-30 00:03 | -15.78255 | -39.29965 | 33052 ft | 518 kts | 217° |
| 2026-04-30 00:03 | -15.83813 | -39.34653 | 33053 ft | 519 kts | 218° |
| 2026-04-30 00:04 | -15.89415 | -39.39385 | 33055 ft | 518 kts | 218° |
| 2026-04-30 00:04 | -15.95015 | -39.44120 | 33060 ft | 519 kts | 218° |
| 2026-04-30 00:05 | -16.00618 | -39.48858 | 33061 ft | 519 kts | 218° |
| 2026-04-30 00:05 | -16.06208 | -39.53588 | 33064 ft | 518 kts | 218° |
| 2026-04-30 00:06 | -16.11801 | -39.58323 | 33063 ft | 518 kts | 218° |
| 2026-04-30 00:06 | -16.17393 | -39.63060 | 33064 ft | 518 kts | 218° |
| 2026-04-30 00:07 | -16.22944 | -39.67767 | 33072 ft | 518 kts | 218° |
| 2026-04-30 00:07 | -16.28537 | -39.72515 | 33068 ft | 518 kts | 218° |
| 2026-04-30 00:08 | -16.34116 | -39.77254 | 33071 ft | 518 kts | 218° |
| 2026-04-30 00:08 | -16.39696 | -39.81999 | 33071 ft | 518 kts | 218° |
| 2026-04-30 00:09 | -16.45276 | -39.86746 | 33079 ft | 517 kts | 218° |
| 2026-04-30 00:09 | -16.50854 | -39.91493 | 33080 ft | 517 kts | 218° |
| 2026-04-30 00:10 | -16.56422 | -39.96234 | 33089 ft | 516 kts | 218° |
| 2026-04-30 00:10 | -16.61946 | -40.00944 | 33085 ft | 516 kts | 218° |
| 2026-04-30 00:11 | -16.67505 | -40.05688 | 33086 ft | 516 kts | 218° |
| 2026-04-30 00:11 | -16.73068 | -40.10440 | 33083 ft | 516 kts | 218° |
| 2026-04-30 00:12 | -16.78619 | -40.15183 | 33086 ft | 516 kts | 218° |
| 2026-04-30 00:12 | -16.84169 | -40.19930 | 33088 ft | 516 kts | 218° |
| 2026-04-30 00:13 | -16.89715 | -40.24675 | 33083 ft | 515 kts | 218° |
| 2026-04-30 00:13 | -16.95266 | -40.29432 | 33082 ft | 516 kts | 218° |
| 2026-04-30 00:14 | -17.00778 | -40.34158 | 33079 ft | 515 kts | 218° |
| 2026-04-30 00:14 | -17.06315 | -40.38908 | 33081 ft | 515 kts | 218° |
| 2026-04-30 00:15 | -17.11854 | -40.43662 | 33083 ft | 515 kts | 218° |
| 2026-04-30 00:15 | -17.17389 | -40.48418 | 33074 ft | 515 kts | 218° |
| 2026-04-30 00:16 | -17.22938 | -40.53190 | 33082 ft | 515 kts | 218° |
| 2026-04-30 00:16 | -17.28482 | -40.57962 | 33074 ft | 515 kts | 218° |
| 2026-04-30 00:17 | -17.34019 | -40.62732 | 33074 ft | 515 kts | 219° |
| 2026-04-30 00:17 | -17.39555 | -40.67504 | 33073 ft | 515 kts | 219° |
| 2026-04-30 00:18 | -17.45088 | -40.72276 | 33074 ft | 515 kts | 219° |
| 2026-04-30 00:18 | -17.50584 | -40.77021 | 33078 ft | 515 kts | 219° |
| 2026-04-30 00:19 | -17.56109 | -40.81799 | 33074 ft | 515 kts | 219° |
| 2026-04-30 00:19 | -17.61640 | -40.86585 | 33078 ft | 515 kts | 219° |
| 2026-04-30 00:20 | -17.67161 | -40.91364 | 33074 ft | 514 kts | 219° |
| 2026-04-30 00:20 | -17.72679 | -40.96143 | 33074 ft | 513 kts | 219° |
| 2026-04-30 00:21 | -17.78150 | -41.00887 | 33078 ft | 513 kts | 219° |
| 2026-04-30 00:21 | -17.83659 | -41.05667 | 33079 ft | 514 kts | 219° |
| 2026-04-30 00:22 | -17.89157 | -41.10439 | 33076 ft | 513 kts | 219° |
| 2026-04-30 00:22 | -17.94657 | -41.15221 | 33077 ft | 512 kts | 219° |
| 2026-04-30 00:23 | -18.00153 | -41.20004 | 33082 ft | 513 kts | 219° |
| 2026-04-30 00:23 | -18.05648 | -41.24787 | 33085 ft | 513 kts | 219° |
| 2026-04-30 00:24 | -18.11137 | -41.29569 | 33088 ft | 512 kts | 219° |
| 2026-04-30 00:24 | -18.16576 | -41.34312 | 33085 ft | 511 kts | 219° |
| 2026-04-30 00:25 | -18.22050 | -41.39093 | 33087 ft | 511 kts | 219° |
| 2026-04-30 00:25 | -18.27521 | -41.43873 | 33082 ft | 512 kts | 220° |
| 2026-04-30 00:26 | -18.32994 | -41.48653 | 33079 ft | 510 kts | 220° |
| 2026-04-30 00:26 | -18.38466 | -41.53441 | 33087 ft | 511 kts | 220° |
| 2026-04-30 00:27 | -18.43929 | -41.58228 | 33071 ft | 512 kts | 220° |
| 2026-04-30 00:27 | -18.49402 | -41.63026 | 33069 ft | 512 kts | 220° |
| 2026-04-30 00:28 | -18.54888 | -41.67838 | 33068 ft | 513 kts | 220° |
| 2026-04-30 00:28 | -18.60340 | -41.72626 | 33063 ft | 513 kts | 220° |
| 2026-04-30 00:29 | -18.65821 | -41.77443 | 33069 ft | 513 kts | 220° |
| 2026-04-30 00:29 | -18.71300 | -41.82261 | 33062 ft | 512 kts | 220° |
| 2026-04-30 00:30 | -18.76773 | -41.87081 | 33063 ft | 512 kts | 220° |
| 2026-04-30 00:30 | -18.82242 | -41.91902 | 33065 ft | 512 kts | 220° |
| 2026-04-30 00:31 | -18.87679 | -41.96695 | 33065 ft | 512 kts | 220° |
| 2026-04-30 00:31 | -18.93145 | -42.01518 | 33063 ft | 511 kts | 221° |
| 2026-04-30 00:32 | -18.98602 | -42.06339 | 33068 ft | 511 kts | 221° |
| 2026-04-30 00:32 | -19.04056 | -42.11163 | 33069 ft | 511 kts | 221° |
| 2026-04-30 00:33 | -19.09508 | -42.15988 | 33073 ft | 511 kts | 221° |
| 2026-04-30 00:33 | -19.14947 | -42.20805 | 33072 ft | 510 kts | 221° |
| 2026-04-30 00:34 | -19.20394 | -42.25636 | 33072 ft | 510 kts | 221° |
| 2026-04-30 00:34 | -19.25833 | -42.30462 | 33074 ft | 510 kts | 221° |
| 2026-04-30 00:35 | -19.31227 | -42.35257 | 33075 ft | 509 kts | 221° |
| 2026-04-30 00:35 | -19.36654 | -42.40079 | 33075 ft | 509 kts | 221° |
| 2026-04-30 00:36 | -19.42082 | -42.44907 | 33074 ft | 509 kts | 221° |
| 2026-04-30 00:36 | -19.47502 | -42.49734 | 33075 ft | 509 kts | 221° |
| 2026-04-30 00:37 | -19.52920 | -42.54561 | 33079 ft | 509 kts | 221° |
| 2026-04-30 00:37 | -19.58335 | -42.59390 | 33077 ft | 508 kts | 221° |
| 2026-04-30 00:38 | -19.63738 | -42.64219 | 33084 ft | 508 kts | 222° |
| 2026-04-30 00:38 | -19.69146 | -42.69055 | 33093 ft | 508 kts | 222° |
| 2026-04-30 00:39 | -19.74548 | -42.73885 | 33090 ft | 507 kts | 222° |
| 2026-04-30 00:39 | -19.79941 | -42.78716 | 33099 ft | 507 kts | 222° |
| 2026-04-30 00:40 | -19.85330 | -42.83547 | 33091 ft | 507 kts | 222° |
| 2026-04-30 00:40 | -19.89812 | -42.87565 | 33101 ft | 507 kts | 222° |
| 2026-04-30 00:41 | -19.96080 | -42.93194 | 33097 ft | 507 kts | 222° |
| 2026-04-30 00:41 | -20.00556 | -42.97217 | 33103 ft | 506 kts | 222° |
| 2026-04-30 00:42 | -20.05936 | -43.02055 | 33100 ft | 506 kts | 222° |
| 2026-04-30 00:42 | -20.11316 | -43.06898 | 33099 ft | 506 kts | 223° |
| 2026-04-30 00:43 | -20.16696 | -43.11749 | 33103 ft | 506 kts | 223° |
| 2026-04-30 00:43 | -20.22072 | -43.16598 | 33099 ft | 506 kts | 223° |
| 2026-04-30 00:44 | -20.27445 | -43.21444 | 33108 ft | 506 kts | 223° |
| 2026-04-30 00:44 | -20.32811 | -43.26293 | 33105 ft | 506 kts | 223° |
| 2026-04-30 00:45 | -20.38180 | -43.31151 | 33111 ft | 506 kts | 223° |
| 2026-04-30 00:45 | -20.43548 | -43.36013 | 33113 ft | 506 kts | 223° |
| 2026-04-30 00:46 | -20.48872 | -43.40837 | 33115 ft | 505 kts | 223° |
| 2026-04-30 00:46 | -20.54225 | -43.45697 | 33120 ft | 506 kts | 223° |
| 2026-04-30 00:47 | -20.59580 | -43.50560 | 33117 ft | 506 kts | 223° |
| 2026-04-30 00:47 | -20.64935 | -43.55427 | 33119 ft | 505 kts | 223° |
| 2026-04-30 00:48 | -20.70287 | -43.60291 | 33124 ft | 505 kts | 224° |
| 2026-04-30 00:48 | -20.75635 | -43.65160 | 33117 ft | 505 kts | 224° |
| 2026-04-30 00:49 | -20.80979 | -43.70033 | 33119 ft | 505 kts | 224° |
| 2026-04-30 00:49 | -20.86333 | -43.74920 | 33122 ft | 505 kts | 224° |
| 2026-04-30 00:50 | -20.91676 | -43.79798 | 33121 ft | 505 kts | 224° |
| 2026-04-30 00:50 | -20.97020 | -43.84683 | 33123 ft | 506 kts | 224° |
| 2026-04-30 00:51 | -21.02369 | -43.89576 | 33127 ft | 506 kts | 224° |
| 2026-04-30 00:51 | -21.07721 | -43.94476 | 33123 ft | 506 kts | 224° |
| 2026-04-30 00:52 | -21.13037 | -43.99351 | 33116 ft | 505 kts | 224° |
| 2026-04-30 00:52 | -21.18382 | -44.04257 | 33119 ft | 505 kts | 224° |
| 2026-04-30 00:53 | -21.23729 | -44.09168 | 33115 ft | 506 kts | 224° |
| 2026-04-30 00:53 | -21.29071 | -44.14081 | 33114 ft | 506 kts | 224° |
| 2026-04-30 00:54 | -21.34410 | -44.18997 | 33111 ft | 506 kts | 224° |
| 2026-04-30 00:54 | -21.39714 | -44.23884 | 33114 ft | 506 kts | 225° |
| 2026-04-30 00:55 | -21.45047 | -44.28801 | 33108 ft | 506 kts | 225° |
| 2026-04-30 00:55 | -21.53051 | -44.36191 | 33108 ft | 505 kts | 225° |
| 2026-04-30 00:56 | -21.58381 | -44.41116 | 33108 ft | 505 kts | 225° |
| 2026-04-30 00:56 | -21.63704 | -44.46045 | 33105 ft | 505 kts | 225° |
| 2026-04-30 00:57 | -21.69028 | -44.50977 | 33114 ft | 505 kts | 225° |
| 2026-04-30 00:57 | -21.74356 | -44.55920 | 33111 ft | 505 kts | 225° |
| 2026-04-30 00:58 | -21.79675 | -44.60856 | 33111 ft | 504 kts | 225° |
| 2026-04-30 00:58 | -21.84984 | -44.65792 | 33113 ft | 504 kts | 225° |
| 2026-04-30 00:59 | -21.90258 | -44.70700 | 33111 ft | 504 kts | 225° |
| 2026-04-30 00:59 | -21.95570 | -44.75645 | 33116 ft | 504 kts | 225° |
| 2026-04-30 01:00 | -22.00875 | -44.80589 | 33112 ft | 504 kts | 225° |
| 2026-04-30 01:00 | -22.06175 | -44.85534 | 33114 ft | 504 kts | 225° |
| 2026-04-30 01:01 | -22.11473 | -44.90482 | 33118 ft | 504 kts | 225° |
| 2026-04-30 01:01 | -22.16769 | -44.95436 | 33113 ft | 504 kts | 225° |
| 2026-04-30 01:02 | -22.22064 | -45.00392 | 33115 ft | 504 kts | 226° |
| 2026-04-30 01:02 | -22.27354 | -45.05348 | 33111 ft | 504 kts | 226° |
| 2026-04-30 01:03 | -22.32649 | -45.10312 | 33110 ft | 504 kts | 226° |
| 2026-04-30 01:03 | -22.37942 | -45.15282 | 33111 ft | 504 kts | 226° |
| 2026-04-30 01:04 | -22.43235 | -45.20258 | 33112 ft | 504 kts | 226° |
| 2026-04-30 01:04 | -22.48494 | -45.25208 | 33108 ft | 505 kts | 226° |
| 2026-04-30 01:05 | -22.53787 | -45.30192 | 33109 ft | 505 kts | 226° |
| 2026-04-30 01:05 | -22.59093 | -45.35195 | 33109 ft | 504 kts | 226° |
| 2026-04-30 01:06 | -22.64381 | -45.40187 | 33098 ft | 504 kts | 226° |
| 2026-04-30 01:06 | -22.69661 | -45.45176 | 33098 ft | 503 kts | 226° |
| 2026-04-30 01:07 | -22.74922 | -45.50149 | 33102 ft | 501 kts | 226° |
| 2026-04-30 01:07 | -22.80138 | -45.55089 | 33114 ft | 500 kts | 226° |
| 2026-04-30 01:08 | -22.85381 | -45.60060 | 33120 ft | 500 kts | 226° |
| 2026-04-30 01:08 | -22.90630 | -45.65043 | 33120 ft | 500 kts | 226° |
| 2026-04-30 01:09 | -22.95865 | -45.70013 | 33117 ft | 499 kts | 226° |
| 2026-04-30 01:09 | -23.01093 | -45.74986 | 33114 ft | 500 kts | 226° |
| 2026-04-30 01:10 | -23.06298 | -45.79939 | 33115 ft | 501 kts | 227° |
| 2026-04-30 01:10 | -23.11537 | -45.84933 | 33100 ft | 501 kts | 227° |
| 2026-04-30 01:11 | -23.16778 | -45.89936 | 33094 ft | 501 kts | 227° |
| 2026-04-30 01:11 | -23.22021 | -45.94942 | 33091 ft | 501 kts | 227° |
| 2026-04-30 01:12 | -23.27255 | -45.99946 | 33092 ft | 500 kts | 227° |
| 2026-04-30 01:12 | -23.32481 | -46.04947 | 33091 ft | 499 kts | 227° |
| 2026-04-30 01:13 | -23.37695 | -46.09945 | 33096 ft | 500 kts | 227° |
| 2026-04-30 01:13 | -23.42875 | -46.14909 | 33111 ft | 496 kts | 227° |
| 2026-04-30 01:14 | -23.48046 | -46.19871 | 33125 ft | 494 kts | 227° |
| 2026-04-30 01:14 | -23.53201 | -46.24829 | 33127 ft | 494 kts | 227° |
| 2026-04-30 01:15 | -23.58353 | -46.29792 | 33137 ft | 494 kts | 228° |
| 2026-04-30 01:15 | -23.63480 | -46.34731 | 33133 ft | 494 kts | 227° |
| 2026-04-30 01:16 | -23.68628 | -46.39692 | 33132 ft | 494 kts | 227° |
| 2026-04-30 01:16 | -23.73768 | -46.44655 | 33149 ft | 493 kts | 228° |
| 2026-04-30 01:17 | -23.78902 | -46.49622 | 33147 ft | 493 kts | 227° |
| 2026-04-30 01:17 | -23.84043 | -46.54600 | 33131 ft | 493 kts | 228° |
| 2026-04-30 01:18 | -23.89184 | -46.59578 | 33112 ft | 493 kts | 227° |
| 2026-04-30 01:18 | -23.94277 | -46.64512 | 33062 ft | 493 kts | 227° |
| 2026-04-30 01:19 | -23.99410 | -46.69494 | 33055 ft | 493 kts | 228° |
| 2026-04-30 01:19 | -24.04536 | -46.74479 | 33063 ft | 493 kts | 228° |
| 2026-04-30 01:20 | -24.09655 | -46.79463 | 33049 ft | 492 kts | 227° |
| 2026-04-30 01:20 | -24.14773 | -46.84447 | 33049 ft | 491 kts | 227° |
| 2026-04-30 01:21 | -24.19879 | -46.89424 | 33055 ft | 491 kts | 227° |
| 2026-04-30 01:21 | -24.24986 | -46.94408 | 33056 ft | 491 kts | 228° |
| 2026-04-30 01:22 | -24.30087 | -46.99395 | 33043 ft | 491 kts | 228° |
| 2026-04-30 01:22 | -24.35155 | -47.04356 | 33043 ft | 491 kts | 228° |
| 2026-04-30 01:23 | -24.40258 | -47.09354 | 33044 ft | 491 kts | 228° |
| 2026-04-30 01:23 | -24.45352 | -47.14347 | 33048 ft | 491 kts | 227° |
| 2026-04-30 01:24 | -24.50454 | -47.19348 | 33051 ft | 491 kts | 227° |
| 2026-04-30 01:24 | -24.55549 | -47.24367 | 33042 ft | 492 kts | 228° |
| 2026-04-30 01:25 | -24.60639 | -47.29379 | 33048 ft | 491 kts | 227° |
| 2026-04-30 01:25 | -24.65729 | -47.34390 | 33049 ft | 491 kts | 227° |
| 2026-04-30 01:26 | -24.70817 | -47.39405 | 33055 ft | 491 kts | 228° |
| 2026-04-30 01:26 | -24.75911 | -47.44431 | 33047 ft | 491 kts | 227° |
| 2026-04-30 01:27 | -24.80962 | -47.49428 | 33054 ft | 492 kts | 228° |
| 2026-04-30 01:27 | -24.86088 | -47.54503 | 33056 ft | 493 kts | 227° |
| 2026-04-30 01:28 | -24.91145 | -47.59510 | 33062 ft | 491 kts | 228° |
| 2026-04-30 01:28 | -24.96200 | -47.64548 | 33050 ft | 488 kts | 228° |
| 2026-04-30 01:29 | -25.00418 | -47.68727 | 33050 ft | 492 kts | 228° |
| 2026-04-30 01:29 | -25.05510 | -47.73780 | 33056 ft | 492 kts | 228° |
| 2026-04-30 01:30 | -25.11433 | -47.79671 | 33059 ft | 492 kts | 228° |
| 2026-04-30 01:30 | -25.15688 | -47.83913 | 33071 ft | 492 kts | 228° |
| 2026-04-30 01:31 | -25.20753 | -47.88953 | 33061 ft | 490 kts | 228° |
| 2026-04-30 01:31 | -25.25776 | -47.93969 | 33060 ft | 486 kts | 229° |
| 2026-04-30 01:32 | -25.30783 | -47.98997 | 33057 ft | 486 kts | 229° |
| 2026-04-30 01:32 | -25.35803 | -48.04008 | 33057 ft | 486 kts | 229° |
| 2026-04-30 01:33 | -25.40825 | -48.09041 | 33057 ft | 487 kts | 229° |
| 2026-04-30 01:33 | -25.45841 | -48.14080 | 33059 ft | 487 kts | 229° |
| 2026-04-30 01:34 | -25.50864 | -48.19122 | 33061 ft | 488 kts | 228° |
| 2026-04-30 01:34 | -25.55908 | -48.24196 | 33065 ft | 493 kts | 228° |
| 2026-04-30 01:35 | -25.60993 | -48.29330 | 33057 ft | 496 kts | 227° |
| 2026-04-30 01:35 | -25.66114 | -48.34481 | 33059 ft | 497 kts | 228° |
| 2026-04-30 01:36 | -25.71213 | -48.39624 | 33061 ft | 496 kts | 228° |
| 2026-04-30 01:36 | -25.76316 | -48.44784 | 33070 ft | 496 kts | 228° |
| 2026-04-30 01:37 | -25.81419 | -48.49951 | 33066 ft | 497 kts | 228° |
| 2026-04-30 01:37 | -25.86517 | -48.55119 | 33084 ft | 496 kts | 229° |
| 2026-04-30 01:38 | -25.91595 | -48.60261 | 33068 ft | 493 kts | 230° |
| 2026-04-30 01:38 | -25.96638 | -48.65407 | 33087 ft | 491 kts | 230° |
| 2026-04-30 01:39 | -26.01676 | -48.70518 | 33081 ft | 490 kts | 231° |
| 2026-04-30 01:39 | -26.06682 | -48.75604 | 33057 ft | 490 kts | 231° |
| 2026-04-30 01:40 | -26.11713 | -48.80734 | 33047 ft | 491 kts | 231° |
| 2026-04-30 01:40 | -26.16746 | -48.85875 | 33048 ft | 490 kts | 231° |
| 2026-04-30 01:41 | -26.21776 | -48.91015 | 33070 ft | 489 kts | 231° |
| 2026-04-30 01:41 | -26.26799 | -48.96154 | 33057 ft | 489 kts | 231° |
| 2026-04-30 01:42 | -26.31786 | -49.01261 | 33066 ft | 490 kts | 231° |
| 2026-04-30 01:42 | -26.36807 | -49.06408 | 33066 ft | 491 kts | 231° |
| 2026-04-30 01:43 | -26.41831 | -49.11567 | 33079 ft | 491 kts | 231° |
| 2026-04-30 01:43 | -26.46853 | -49.16731 | 33081 ft | 491 kts | 231° |
| 2026-04-30 01:44 | -26.51876 | -49.21899 | 33084 ft | 491 kts | 231° |
| 2026-04-30 01:44 | -26.56898 | -49.27072 | 33085 ft | 491 kts | 232° |
| 2026-04-30 01:45 | -26.61919 | -49.32235 | 33073 ft | 490 kts | 232° |
| 2026-04-30 01:45 | -26.66913 | -49.37381 | 33100 ft | 485 kts | 232° |
| 2026-04-30 01:46 | -26.71860 | -49.42526 | 33077 ft | 484 kts | 232° |
| 2026-04-30 01:46 | -26.76807 | -49.47672 | 33101 ft | 488 kts | 232° |
| 2026-04-30 01:47 | -26.81777 | -49.52826 | 33111 ft | 486 kts | 232° |
| 2026-04-30 01:47 | -26.86753 | -49.57987 | 33088 ft | 489 kts | 232° |
| 2026-04-30 01:48 | -26.91704 | -49.63149 | 33092 ft | 487 kts | 232° |
| 2026-04-30 01:48 | -26.96664 | -49.68314 | 33089 ft | 486 kts | 232° |
| 2026-04-30 01:49 | -27.01622 | -49.73453 | 33092 ft | 483 kts | 232° |
| 2026-04-30 01:49 | -27.06572 | -49.78612 | 33095 ft | 485 kts | 231° |
| 2026-04-30 01:50 | -27.11486 | -49.83736 | 33097 ft | 481 kts | 232° |
| 2026-04-30 01:50 | -27.16384 | -49.88876 | 33093 ft | 483 kts | 232° |
| 2026-04-30 01:51 | -27.21282 | -49.94015 | 33095 ft | 482 kts | 232° |
| 2026-04-30 01:51 | -27.26148 | -49.99117 | 33101 ft | 480 kts | 231° |
| 2026-04-30 01:52 | -27.31017 | -50.04199 | 33104 ft | 477 kts | 231° |
| 2026-04-30 01:52 | -27.35874 | -50.09322 | 33096 ft | 479 kts | 231° |
| 2026-04-30 01:53 | -27.40726 | -50.14450 | 33103 ft | 478 kts | 231° |
| 2026-04-30 01:53 | -27.45583 | -50.19584 | 33109 ft | 479 kts | 231° |
| 2026-04-30 01:54 | -27.50457 | -50.24720 | 33097 ft | 480 kts | 231° |
| 2026-04-30 01:54 | -27.55328 | -50.29848 | 33098 ft | 480 kts | 231° |
| 2026-04-30 01:55 | -27.60196 | -50.35011 | 33110 ft | 480 kts | 231° |
| 2026-04-30 01:55 | -27.65065 | -50.40180 | 33098 ft | 478 kts | 231° |
| 2026-04-30 01:56 | -27.69924 | -50.45333 | 33101 ft | 480 kts | 230° |
| 2026-04-30 01:56 | -27.74772 | -50.50458 | 33106 ft | 481 kts | 231° |
| 2026-04-30 01:57 | -27.79632 | -50.55604 | 33103 ft | 479 kts | 231° |
| 2026-04-30 01:57 | -27.84480 | -50.60773 | 33103 ft | 479 kts | 231° |
| 2026-04-30 01:58 | -27.89316 | -50.65951 | 33109 ft | 478 kts | 230° |
| 2026-04-30 01:58 | -27.94141 | -50.71110 | 33100 ft | 476 kts | 230° |
| 2026-04-30 01:59 | -28.01336 | -50.78803 | 33100 ft | 475 kts | 230° |
| 2026-04-30 02:00 | -28.06136 | -50.83941 | 33101 ft | 474 kts | 231° |
| 2026-04-30 02:00 | -28.10923 | -50.89079 | 33108 ft | 473 kts | 231° |
| 2026-04-30 02:01 | -28.15703 | -50.94210 | 33101 ft | 473 kts | 231° |
| 2026-04-30 02:01 | -28.20472 | -50.99342 | 33100 ft | 472 kts | 231° |
| 2026-04-30 02:02 | -28.25237 | -51.04474 | 33102 ft | 472 kts | 231° |
| 2026-04-30 02:02 | -28.29998 | -51.09609 | 33100 ft | 472 kts | 231° |
| 2026-04-30 02:03 | -28.34759 | -51.14748 | 33097 ft | 472 kts | 231° |
| 2026-04-30 02:03 | -28.39493 | -51.19863 | 33101 ft | 472 kts | 231° |
| 2026-04-30 02:04 | -28.44249 | -51.25012 | 33084 ft | 472 kts | 231° |
| 2026-04-30 02:04 | -28.49000 | -51.30160 | 33082 ft | 472 kts | 231° |
| 2026-04-30 02:05 | -28.53748 | -51.35313 | 33085 ft | 471 kts | 231° |
| 2026-04-30 02:05 | -28.58480 | -51.40452 | 33096 ft | 470 kts | 231° |
| 2026-04-30 02:06 | -28.63217 | -51.45605 | 33096 ft | 470 kts | 231° |
| 2026-04-30 02:06 | -28.67940 | -51.50752 | 33087 ft | 470 kts | 231° |
| 2026-04-30 02:07 | -28.72660 | -51.55905 | 33084 ft | 470 kts | 231° |
| 2026-04-30 02:07 | -28.77380 | -51.61059 | 33094 ft | 471 kts | 232° |
| 2026-04-30 02:08 | -28.82086 | -51.66181 | 33091 ft | 468 kts | 232° |
| 2026-04-30 02:08 | -28.86758 | -51.71324 | 33084 ft | 466 kts | 232° |
| 2026-04-30 02:09 | -28.91430 | -51.76449 | 33085 ft | 467 kts | 232° |
| 2026-04-30 02:09 | -28.96109 | -51.81596 | 33098 ft | 468 kts | 232° |
| 2026-04-30 02:10 | -29.00764 | -51.86724 | 33088 ft | 463 kts | 232° |
| 2026-04-30 02:10 | -29.05431 | -51.91877 | 33089 ft | 467 kts | 232° |
| 2026-04-30 02:11 | -29.10133 | -51.97062 | 33085 ft | 471 kts | 232° |
| 2026-04-30 02:11 | -29.14830 | -52.02219 | 33091 ft | 467 kts | 232° |
| 2026-04-30 02:12 | -29.19483 | -52.07339 | 33075 ft | 460 kts | 231° |
| 2026-04-30 02:12 | -29.24089 | -52.12427 | 33073 ft | 460 kts | 231° |
| 2026-04-30 02:13 | -29.28685 | -52.17542 | 33070 ft | 460 kts | 231° |
| 2026-04-30 02:13 | -29.33267 | -52.22634 | 33074 ft | 459 kts | 232° |
| 2026-04-30 02:14 | -29.37806 | -52.27700 | 33076 ft | 457 kts | 232° |
| 2026-04-30 02:14 | -29.42383 | -52.32789 | 33080 ft | 458 kts | 231° |
| 2026-04-30 02:15 | -29.46943 | -52.37879 | 33106 ft | 459 kts | 231° |
| 2026-04-30 02:15 | -29.51513 | -52.42951 | 33070 ft | 456 kts | 231° |
| 2026-04-30 02:16 | -29.56075 | -52.48028 | 33076 ft | 457 kts | 231° |
| 2026-04-30 02:16 | -29.60611 | -52.53104 | 33085 ft | 458 kts | 231° |
| 2026-04-30 02:17 | -29.65170 | -52.58214 | 33078 ft | 457 kts | 231° |
| 2026-04-30 02:17 | -29.69721 | -52.63345 | 33069 ft | 458 kts | 231° |
| 2026-04-30 02:18 | -29.73509 | -52.67604 | 33072 ft | 458 kts | 231° |
| 2026-04-30 02:18 | -29.78069 | -52.72723 | 33073 ft | 458 kts | 231° |
| 2026-04-30 02:19 | -29.82627 | -52.77849 | 33076 ft | 457 kts | 231° |
| 2026-04-30 02:19 | -29.87158 | -52.82959 | 33073 ft | 454 kts | 230° |
| 2026-04-30 02:20 | -29.91673 | -52.88056 | 33070 ft | 453 kts | 230° |
| 2026-04-30 02:20 | -29.96149 | -52.93115 | 33068 ft | 454 kts | 231° |
| 2026-04-30 02:21 | -30.00654 | -52.98211 | 33072 ft | 453 kts | 231° |
| 2026-04-30 02:21 | -30.05155 | -53.03310 | 33073 ft | 453 kts | 230° |
| 2026-04-30 02:22 | -30.09641 | -53.08403 | 33075 ft | 452 kts | 230° |
| 2026-04-30 02:22 | -30.14119 | -53.13497 | 33071 ft | 452 kts | 230° |
| 2026-04-30 02:23 | -30.18600 | -53.18597 | 33074 ft | 452 kts | 230° |
| 2026-04-30 02:23 | -30.23068 | -53.23689 | 33063 ft | 450 kts | 230° |
| 2026-04-30 02:24 | -30.27524 | -53.28768 | 33088 ft | 448 kts | 230° |
| 2026-04-30 02:24 | -30.31962 | -53.33839 | 33086 ft | 447 kts | 230° |
| 2026-04-30 02:25 | -30.36356 | -53.38870 | 33089 ft | 447 kts | 230° |
| 2026-04-30 02:25 | -30.40779 | -53.43941 | 33089 ft | 447 kts | 230° |
| 2026-04-30 02:26 | -30.45200 | -53.49010 | 33094 ft | 447 kts | 230° |
| 2026-04-30 02:26 | -30.49622 | -53.54091 | 33092 ft | 447 kts | 230° |
| 2026-04-30 02:27 | -30.54039 | -53.59174 | 33070 ft | 447 kts | 230° |
| 2026-04-30 02:27 | -30.58418 | -53.64219 | 33083 ft | 444 kts | 229° |
| 2026-04-30 02:28 | -30.62795 | -53.69262 | 33086 ft | 442 kts | 230° |
| 2026-04-30 02:28 | -30.67156 | -53.74301 | 33087 ft | 442 kts | 229° |
| 2026-04-30 02:29 | -30.71506 | -53.79334 | 33077 ft | 441 kts | 229° |
| 2026-04-30 02:29 | -30.75854 | -53.84368 | 33080 ft | 441 kts | 229° |
| 2026-04-30 02:30 | -30.80193 | -53.89402 | 33084 ft | 441 kts | 229° |
| 2026-04-30 02:30 | -30.84532 | -53.94442 | 33082 ft | 440 kts | 229° |
| 2026-04-30 02:31 | -30.88861 | -53.99478 | 33082 ft | 440 kts | 229° |
| 2026-04-30 02:31 | -30.93187 | -54.04511 | 33081 ft | 439 kts | 229° |
| 2026-04-30 02:32 | -30.97504 | -54.09544 | 33077 ft | 439 kts | 229° |
| 2026-04-30 02:32 | -31.01786 | -54.14545 | 33078 ft | 439 kts | 229° |
| 2026-04-30 02:33 | -31.06099 | -54.19589 | 33075 ft | 439 kts | 229° |
| 2026-04-30 02:33 | -31.10407 | -54.24631 | 33080 ft | 439 kts | 229° |
| 2026-04-30 02:34 | -31.14709 | -54.29672 | 33070 ft | 438 kts | 229° |
| 2026-04-30 02:34 | -31.19006 | -54.34716 | 33072 ft | 438 kts | 229° |
| 2026-04-30 02:35 | -31.23292 | -54.39757 | 33072 ft | 437 kts | 229° |
| 2026-04-30 02:35 | -31.27579 | -54.44807 | 33069 ft | 437 kts | 229° |
| 2026-04-30 02:36 | -31.31843 | -54.49842 | 33070 ft | 434 kts | 228° |
| 2026-04-30 02:36 | -31.36091 | -54.54842 | 33069 ft | 433 kts | 228° |
| 2026-04-30 02:37 | -31.40299 | -54.59811 | 33068 ft | 432 kts | 228° |
| 2026-04-30 02:37 | -31.44525 | -54.64819 | 33067 ft | 432 kts | 228° |
| 2026-04-30 02:38 | -31.48892 | -54.69672 | 33069 ft | 433 kts | 226° |
| 2026-04-30 02:38 | -31.53385 | -54.74406 | 33070 ft | 434 kts | 225° |
| 2026-04-30 02:39 | -31.57865 | -54.79158 | 33065 ft | 434 kts | 226° |
| 2026-04-30 02:39 | -31.62319 | -54.83943 | 33067 ft | 434 kts | 226° |
| 2026-04-30 02:40 | -31.66728 | -54.88706 | 33064 ft | 432 kts | 226° |
| 2026-04-30 02:40 | -31.71147 | -54.93493 | 33065 ft | 432 kts | 226° |
| 2026-04-30 02:41 | -31.75564 | -54.98281 | 33065 ft | 432 kts | 226° |
| 2026-04-30 02:41 | -31.79982 | -55.03077 | 33066 ft | 432 kts | 226° |
| 2026-04-30 02:42 | -31.84396 | -55.07875 | 33063 ft | 432 kts | 226° |
| 2026-04-30 02:42 | -31.88814 | -55.12682 | 33063 ft | 432 kts | 226° |
| 2026-04-30 02:43 | -31.93230 | -55.17493 | 33063 ft | 433 kts | 226° |
| 2026-04-30 02:43 | -31.97646 | -55.22309 | 33105 ft | 432 kts | 226° |
| 2026-04-30 02:44 | -32.02046 | -55.27115 | 33059 ft | 430 kts | 226° |
| 2026-04-30 02:44 | -32.06426 | -55.31906 | 33062 ft | 430 kts | 226° |
| 2026-04-30 02:45 | -32.10808 | -55.36708 | 33062 ft | 430 kts | 226° |
| 2026-04-30 02:45 | -32.15160 | -55.41482 | 33058 ft | 430 kts | 226° |
| 2026-04-30 02:46 | -32.19538 | -55.46291 | 33061 ft | 430 kts | 226° |
| 2026-04-30 02:46 | -32.23915 | -55.51105 | 33062 ft | 430 kts | 226° |
| 2026-04-30 02:47 | -32.28293 | -55.55929 | 33058 ft | 429 kts | 226° |
| 2026-04-30 02:47 | -32.32656 | -55.60742 | 33071 ft | 429 kts | 226° |
| 2026-04-30 02:48 | -32.37011 | -55.65554 | 33056 ft | 428 kts | 226° |
| 2026-04-30 02:48 | -32.41364 | -55.70368 | 33056 ft | 428 kts | 226° |
| 2026-04-30 02:49 | -32.45713 | -55.75185 | 33059 ft | 428 kts | 226° |
| 2026-04-30 02:49 | -32.50058 | -55.80004 | 33058 ft | 427 kts | 226° |
| 2026-04-30 02:50 | -32.54392 | -55.84817 | 33053 ft | 427 kts | 226° |
| 2026-04-30 02:50 | -32.58693 | -55.89599 | 33053 ft | 426 kts | 226° |
| 2026-04-30 02:51 | -32.63024 | -55.94425 | 33053 ft | 426 kts | 226° |
| 2026-04-30 02:51 | -32.67343 | -55.99240 | 33060 ft | 425 kts | 226° |
| 2026-04-30 02:52 | -32.71652 | -56.04056 | 33053 ft | 425 kts | 226° |
| 2026-04-30 02:52 | -32.75950 | -56.08866 | 33054 ft | 425 kts | 226° |
| 2026-04-30 02:53 | -32.80254 | -56.13686 | 33048 ft | 425 kts | 226° |
| 2026-04-30 02:53 | -32.84555 | -56.18509 | 33047 ft | 425 kts | 226° |
| 2026-04-30 02:54 | -32.88851 | -56.23335 | 33047 ft | 425 kts | 226° |
| 2026-04-30 02:54 | -32.93148 | -56.28166 | 33047 ft | 425 kts | 226° |
| 2026-04-30 02:55 | -32.97440 | -56.33002 | 33047 ft | 424 kts | 226° |
| 2026-04-30 02:55 | -33.01696 | -56.37816 | 33057 ft | 423 kts | 226° |
| 2026-04-30 02:56 | -33.05956 | -56.42651 | 33056 ft | 422 kts | 226° |
| 2026-04-30 02:56 | -33.10212 | -56.47491 | 33053 ft | 422 kts | 226° |
| 2026-04-30 02:57 | -33.14463 | -56.52327 | 33033 ft | 422 kts | 226° |
| 2026-04-30 02:57 | -33.18708 | -56.57162 | 33049 ft | 422 kts | 226° |
| 2026-04-30 02:58 | -33.22953 | -56.62004 | 33048 ft | 422 kts | 226° |
| 2026-04-30 02:58 | -33.27199 | -56.66842 | 33048 ft | 422 kts | 226° |
| 2026-04-30 02:59 | -33.31421 | -56.71664 | 33045 ft | 422 kts | 226° |
| 2026-04-30 02:59 | -33.35661 | -56.76516 | 33043 ft | 421 kts | 226° |
| 2026-04-30 03:00 | -33.39894 | -56.81365 | 33042 ft | 420 kts | 226° |
| 2026-04-30 03:00 | -33.44120 | -56.86212 | 33045 ft | 420 kts | 226° |
| 2026-04-30 03:01 | -33.48338 | -56.91061 | 33046 ft | 420 kts | 226° |
| 2026-04-30 03:01 | -33.52534 | -56.95890 | 33047 ft | 420 kts | 226° |
| 2026-04-30 03:02 | -33.56751 | -57.00750 | 33045 ft | 420 kts | 226° |
| 2026-04-30 03:02 | -33.60967 | -57.05613 | 33044 ft | 420 kts | 226° |
| 2026-04-30 03:03 | -33.65183 | -57.10487 | 33042 ft | 420 kts | 226° |
| 2026-04-30 03:03 | -33.71475 | -57.17770 | 33046 ft | 419 kts | 226° |
| 2026-04-30 03:04 | -33.75671 | -57.22640 | 33045 ft | 419 kts | 226° |
| 2026-04-30 03:04 | -33.79158 | -57.26690 | 33046 ft | 419 kts | 226° |
| 2026-04-30 03:05 | -33.83350 | -57.31563 | 33044 ft | 419 kts | 226° |
| 2026-04-30 03:05 | -33.87542 | -57.36443 | 33045 ft | 419 kts | 226° |
| 2026-04-30 03:06 | -33.91727 | -57.41321 | 33043 ft | 419 kts | 227° |
| 2026-04-30 03:06 | -33.95918 | -57.46215 | 33044 ft | 419 kts | 227° |
| 2026-04-30 03:07 | -34.00074 | -57.51076 | 33038 ft | 417 kts | 227° |
| 2026-04-30 03:08 | -34.08612 | -57.61076 | 33037 ft | 407 kts | 227° |
| 2026-04-30 03:08 | -34.12650 | -57.65822 | 32527 ft | 400 kts | 227° |
| 2026-04-30 03:09 | -34.14606 | -57.68121 | 31825 ft | 398 kts | 227° |
| 2026-04-30 03:09 | -34.16594 | -57.70465 | 30968 ft | 400 kts | 227° |
| 2026-04-30 03:09 | -34.18623 | -57.72857 | 30089 ft | 403 kts | 226° |
| 2026-04-30 03:09 | -34.20606 | -57.75195 | 29165 ft | 404 kts | 226° |
| 2026-04-30 03:10 | -34.22651 | -57.77540 | 27986 ft | 404 kts | 224° |
| 2026-04-30 03:10 | -34.24847 | -57.79640 | 26320 ft | 404 kts | 219° |
| 2026-04-30 03:10 | -34.27245 | -57.81451 | 24660 ft | 407 kts | 215° |
| 2026-04-30 03:10 | -34.29711 | -57.83140 | 23052 ft | 406 kts | 214° |
| 2026-04-30 03:11 | -34.32172 | -57.84800 | 21287 ft | 404 kts | 214° |
| 2026-04-30 03:11 | -34.34598 | -57.86431 | 20230 ft | 390 kts | 214° |
| 2026-04-30 03:11 | -34.36896 | -57.87971 | 19670 ft | 366 kts | 214° |
| 2026-04-30 03:11 | -34.39053 | -57.89419 | 19214 ft | 343 kts | 214° |
| 2026-04-30 03:12 | -34.41076 | -57.90782 | 18815 ft | 321 kts | 214° |
| 2026-04-30 03:12 | -34.42977 | -57.92065 | 18362 ft | 305 kts | 215° |
| 2026-04-30 03:12 | -34.44806 | -57.93308 | 17577 ft | 299 kts | 215° |
| 2026-04-30 03:12 | -34.46603 | -57.94531 | 16770 ft | 294 kts | 214° |
| 2026-04-30 03:13 | -34.48377 | -57.95738 | 15969 ft | 291 kts | 214° |
| 2026-04-30 03:13 | -34.50111 | -57.96918 | 15186 ft | 288 kts | 214° |
| 2026-04-30 03:13 | -34.51849 | -57.98099 | 14410 ft | 286 kts | 214° |
| 2026-04-30 03:13 | -34.53574 | -57.99269 | 13622 ft | 283 kts | 213° |
| 2026-04-30 03:14 | -34.55288 | -58.00435 | 12756 ft | 281 kts | 213° |
| 2026-04-30 03:14 | -34.56990 | -58.01592 | 11893 ft | 280 kts | 213° |
| 2026-04-30 03:14 | -34.58693 | -58.02751 | 11055 ft | 279 kts | 213° |
| 2026-04-30 03:14 | -34.60384 | -58.03901 | 10261 ft | 278 kts | 212° |
| 2026-04-30 03:15 | -34.62069 | -58.05047 | 9449 ft | 277 kts | 212° |
| 2026-04-30 03:15 | -34.63744 | -58.06183 | 8634 ft | 274 kts | 212° |
| 2026-04-30 03:15 | -34.65402 | -58.07311 | 7967 ft | 270 kts | 212° |
| 2026-04-30 03:15 | -34.67026 | -58.08417 | 7663 ft | 266 kts | 212° |
| 2026-04-30 03:16 | -34.68634 | -58.09513 | 7411 ft | 265 kts | 212° |
| 2026-04-30 03:16 | -34.70241 | -58.10610 | 7154 ft | 264 kts | 212° |
| 2026-04-30 03:16 | -34.71841 | -58.11702 | 6928 ft | 263 kts | 212° |
| 2026-04-30 03:16 | -34.73439 | -58.12792 | 6692 ft | 263 kts | 212° |
| 2026-04-30 03:17 | -34.75009 | -58.13867 | 6441 ft | 262 kts | 212° |
| 2026-04-30 03:17 | -34.76599 | -58.14954 | 6177 ft | 262 kts | 212° |
| 2026-04-30 03:17 | -34.78186 | -58.16037 | 5934 ft | 262 kts | 212° |
| 2026-04-30 03:17 | -34.79751 | -58.17105 | 5770 ft | 252 kts | 212° |
| 2026-04-30 03:18 | -34.81246 | -58.18124 | 5634 ft | 240 kts | 212° |
| 2026-04-30 03:18 | -34.82670 | -58.19097 | 5499 ft | 231 kts | 212° |
| 2026-04-30 03:18 | -34.84072 | -58.20060 | 5186 ft | 232 kts | 212° |
| 2026-04-30 03:18 | -34.85329 | -58.21263 | 4801 ft | 230 kts | 232° |
| 2026-04-30 03:19 | -34.86018 | -58.22973 | 4470 ft | 223 kts | 260° |
| 2026-04-30 03:19 | -34.86134 | -58.24792 | 4325 ft | 210 kts | 269° |
| 2026-04-30 03:19 | -34.86124 | -58.26532 | 4187 ft | 202 kts | 270° |
| 2026-04-30 03:19 | -34.86108 | -58.28241 | 4073 ft | 202 kts | 270° |
| 2026-04-30 03:20 | -34.86099 | -58.29947 | 4055 ft | 201 kts | 270° |
| 2026-04-30 03:20 | -34.86072 | -58.31612 | 3899 ft | 193 kts | 275° |
| 2026-04-30 03:20 | -34.85845 | -58.33211 | 3454 ft | 192 kts | 281° |
| 2026-04-30 03:20 | -34.85569 | -58.34805 | 2926 ft | 193 kts | 280° |
| 2026-04-30 03:21 | -34.85288 | -58.36369 | 2520 ft | 188 kts | 279° |
| 2026-04-30 03:21 | -34.85022 | -58.37926 | 2282 ft | 180 kts | 279° |
| 2026-04-30 03:21 | -34.84769 | -58.39352 | 2065 ft | 165 kts | 279° |
| 2026-04-30 03:21 | -34.84536 | -58.40640 | 1867 ft | 152 kts | 279° |
| 2026-04-30 03:22 | -34.84320 | -58.41844 | 1682 ft | 141 kts | 278° |
| 2026-04-30 03:22 | -34.84114 | -58.42997 | 1505 ft | 139 kts | 278° |
| 2026-04-30 03:22 | -34.83909 | -58.44148 | 1334 ft | 139 kts | 278° |
| 2026-04-30 03:22 | -34.83703 | -58.45296 | 1144 ft | 138 kts | 278° |
| 2026-04-30 03:23 | -34.83499 | -58.46439 | 973 ft | 137 kts | 277° |
| 2026-04-30 03:23 | -34.83298 | -58.47574 | 787 ft | 138 kts | 281° |
| 2026-04-30 03:23 | -34.83091 | -58.48718 | 614 ft | 137 kts | 281° |
| 2026-04-30 03:23 | -34.82895 | -58.49848 | 420 ft | 135 kts | 282° |
| 2026-04-30 03:24 | -34.82695 | -58.50965 | 258 ft | 135 kts | 282° |
| 2026-04-30 03:24 | -34.82489 | -58.52079 | 94 ft | 133 kts | 281° |
| 2026-04-30 03:24 | -34.82302 | -58.53111 | 75 ft | 113 kts | 283° |
| 2026-04-30 03:24 | -34.82187 | -58.53772 | 69 ft | 28 kts | 282° |
| 2026-04-30 03:25 | -34.82117 | -58.53890 | 70 ft | 14 kts | 7° |
| 2026-04-30 03:25 | -34.82083 | -58.53858 | 76 ft | 0 kts | 50° |
| 2026-04-30 03:25 | -34.82070 | -58.53841 | 76 ft | 5 kts | 49° |
| 2026-04-30 03:25 | -34.82036 | -58.53795 | 68 ft | 10 kts | 46° |
| 2026-04-30 03:26 | -34.81978 | -58.53724 | 64 ft | 14 kts | 45° |
| 2026-04-30 03:26 | -34.81895 | -58.53645 | 67 ft | 16 kts | 8° |
| 2026-04-30 03:26 | -34.81785 | -58.53700 | 66 ft | 18 kts | 335° |
| 2026-04-30 03:26 | -34.81714 | -58.53761 | 64 ft | 20 kts | 305° |
| 2026-04-30 03:27 | -34.81733 | -58.53917 | 62 ft | 21 kts | 238° |
| 2026-04-30 03:27 | -34.81773 | -58.53999 | 72 ft | 2 kts | 244° |
| 2026-04-30 03:27 | -34.81779 | -58.54014 | 65 ft | 0 kts | 244° |
| 2026-04-30 03:27 | -34.81780 | -58.54017 | 67 ft | 2 kts | 247° |
| 2026-04-30 03:28 | -34.81787 | -58.54046 | 76 ft | 6 kts | 254° |
| 2026-04-30 03:28 | -34.81794 | -58.54110 | 67 ft | 10 kts | 268° |
| 2026-04-30 03:28 | -34.81781 | -58.54203 | 76 ft | 13 kts | 281° |
| 2026-04-30 03:28 | -34.81771 | -58.54282 | 68 ft | 15 kts | 275° |
| 2026-04-30 03:29 | -34.81757 | -58.54417 | 71 ft | 18 kts | 279° |
| 2026-04-30 03:29 | -34.81733 | -58.54568 | 67 ft | 19 kts | 297° |
| 2026-04-30 03:29 | -34.81653 | -58.54589 | 70 ft | 10 kts | 30° |
| 2026-04-30 03:29 | -34.81611 | -58.54572 | 73 ft | 0 kts | 11° |
| 2026-04-30 03:30 | -34.81608 | -58.54571 | 76 ft | 0 kts | 12° |